createdAt,value
2023-04-26T00:00:00.209Z,99541.72
2023-04-26T00:03:03.931Z,99537.16
2023-04-26T00:06:09.978Z,99535.00
2023-04-26T00:09:12.487Z,99531.78
2023-04-26T00:12:14.890Z,99536.06
2023-04-26T00:15:17.064Z,99540.94
2023-04-26T00:18:19.421Z,99539.31
2023-04-26T00:21:21.642Z,99545.50
2023-04-26T00:24:23.833Z,99544.41
2023-04-26T00:27:26.042Z,99548.97
2023-04-26T00:30:28.256Z,99560.78
2023-04-26T00:33:30.571Z,99560.50
2023-04-26T00:36:33.089Z,99559.16
2023-04-26T00:39:35.591Z,99568.03
2023-04-26T00:42:40.884Z,99557.25
2023-04-26T00:45:43.176Z,99565.63
2023-04-26T00:48:47.092Z,99572.84
2023-04-26T00:51:50.386Z,99565.84
2023-04-26T00:54:54.152Z,99573.91
2023-04-26T00:57:56.658Z,99574.72
2023-04-26T01:00:58.846Z,99573.66
2023-04-26T01:04:01.739Z,99575.00
2023-04-26T01:07:04.121Z,99575.28
2023-04-26T01:10:10.094Z,99584.38
2023-04-26T01:13:12.958Z,99588.16
2023-04-26T01:16:15.683Z,99585.19
2023-04-26T01:19:18.263Z,99595.41
2023-04-26T01:22:21.296Z,99587.84
2023-04-26T01:25:25.149Z,99584.34
2023-04-26T01:28:27.364Z,99587.56
2023-04-26T01:31:29.892Z,99591.88
2023-04-26T01:34:34.513Z,99604.78
2023-04-26T01:37:36.729Z,99595.09
2023-04-26T01:40:38.999Z,99599.91
2023-04-26T01:43:41.604Z,99604.47
2023-04-26T01:46:45.047Z,99609.56
2023-04-26T01:49:48.370Z,99613.88
2023-04-26T01:52:50.533Z,99631.03
2023-04-26T01:55:55.699Z,99617.56
2023-04-26T01:58:59.211Z,99618.72
2023-04-26T02:02:01.780Z,99635.06
2023-04-26T02:05:04.563Z,99630.44
2023-04-26T02:08:06.918Z,99626.38
2023-04-26T02:11:09.266Z,99629.31
2023-04-26T02:14:11.969Z,99634.44
2023-04-26T02:17:14.749Z,99636.53
2023-04-26T02:20:16.999Z,99640.56
2023-04-26T02:23:19.178Z,99637.53
2023-04-26T02:26:21.484Z,99640.00
2023-04-26T02:29:36.351Z,99644.47
2023-04-26T02:32:45.073Z,99638.84
2023-04-26T02:35:47.404Z,99628.66
2023-04-26T02:38:49.784Z,99632.38
2023-04-26T02:41:52.226Z,99641.78
2023-04-26T02:44:54.546Z,99638.56
2023-04-26T02:47:56.890Z,99647.41
2023-04-26T02:50:59.222Z,99644.25
2023-04-26T02:54:04.188Z,99651.22
2023-04-26T02:57:08.408Z,99655.00
2023-04-26T03:00:14.123Z,99663.50
2023-04-26T03:03:16.791Z,99661.69
2023-04-26T03:06:20.823Z,99664.13
2023-04-26T03:09:23.231Z,99675.91
2023-04-26T03:12:26.806Z,99677.75
2023-04-26T03:15:29.059Z,99685.53
2023-04-26T03:18:31.443Z,99688.22
2023-04-26T03:21:33.874Z,99695.66
2023-04-26T03:24:36.039Z,99697.22
2023-04-26T03:27:38.257Z,99703.59
2023-04-26T03:30:40.588Z,99704.09
2023-04-26T03:33:42.795Z,99705.97
2023-04-26T03:36:45.126Z,99711.31
2023-04-26T03:39:47.455Z,99716.91
2023-04-26T03:42:50.006Z,99705.66
2023-04-26T03:45:52.539Z,99727.53
2023-04-26T03:48:54.990Z,99728.34
2023-04-26T03:51:57.290Z,99733.47
2023-04-26T03:54:59.891Z,99736.16
2023-04-26T03:58:07.769Z,99732.84
2023-04-26T04:01:10.065Z,99737.50
2023-04-26T04:04:12.503Z,99741.41
2023-04-26T04:07:16.553Z,99734.22
2023-04-26T04:10:18.878Z,99741.66
2023-04-26T04:13:21.123Z,99746.56
2023-04-26T04:16:23.436Z,99748.00
2023-04-26T04:19:26.174Z,99742.66
2023-04-26T04:22:28.396Z,99739.44
2023-04-26T04:25:31.067Z,99741.34
2023-04-26T04:28:36.430Z,99743.75
2023-04-26T04:31:40.066Z,99745.59
2023-04-26T04:34:44.401Z,99746.97
2023-04-26T04:37:46.892Z,99750.75
2023-04-26T04:40:50.197Z,99771.19
2023-04-26T04:43:54.045Z,99768.78
2023-04-26T04:46:57.039Z,99771.22
2023-04-26T04:50:00.244Z,99772.59
2023-04-26T04:53:02.944Z,99775.84
2023-04-26T04:56:09.215Z,99780.41
2023-04-26T04:59:12.131Z,99780.91
2023-04-26T05:02:14.879Z,99797.59
2023-04-26T05:05:17.484Z,99783.03
2023-04-26T05:08:20.120Z,99801.59
2023-04-26T05:11:22.498Z,99812.63
2023-04-26T05:14:24.878Z,99801.28
2023-04-26T05:17:27.250Z,99803.97
2023-04-26T05:20:31.228Z,99820.59
2023-04-26T05:23:34.478Z,99818.19
2023-04-26T05:26:37.438Z,99820.09
2023-04-26T05:29:45.910Z,99813.41
2023-04-26T05:33:01.268Z,99801.81
2023-04-26T05:36:30.108Z,99814.50
2023-04-26T05:39:32.726Z,99829.25
2023-04-26T05:42:35.323Z,99818.53
2023-04-26T05:45:37.857Z,99825.47
2023-04-26T05:48:40.990Z,99820.59
2023-04-26T05:51:43.394Z,99828.34
2023-04-26T05:54:46.666Z,99841.53
2023-04-26T05:57:49.200Z,99832.41
2023-04-26T06:00:51.556Z,99834.38
2023-04-26T06:04:00.953Z,99843.22
2023-04-26T06:10:29.363Z,99826.00
2023-04-26T06:13:32.185Z,99834.34
2023-04-26T06:16:36.722Z,99800.09
2023-04-26T06:19:41.264Z,99851.22
2023-04-26T06:22:44.070Z,99859.31
2023-04-26T06:25:47.990Z,99840.97
2023-04-26T06:28:50.261Z,99872.19
2023-04-26T06:31:52.648Z,99842.38
2023-04-26T06:34:57.970Z,99842.38
2023-04-26T06:38:00.466Z,99847.78
2023-04-26T06:41:02.861Z,99847.22
2023-04-26T06:44:05.230Z,99850.19
2023-04-26T06:47:09.667Z,99854.22
2023-04-26T06:50:12.669Z,99847.78
2023-04-26T06:53:23.475Z,99831.91
2023-04-26T06:56:30.822Z,99861.00
2023-04-26T06:59:36.805Z,99852.44
2023-04-26T07:02:39.930Z,99852.97
2023-04-26T07:05:43.237Z,99837.94
2023-04-26T07:08:49.363Z,99854.13
2023-04-26T07:11:58.223Z,99861.94
2023-04-26T07:15:08.923Z,99847.66
2023-04-26T07:18:15.362Z,99855.25
2023-04-26T07:21:17.703Z,99872.19
2023-04-26T07:24:20.495Z,99869.81
2023-04-26T07:27:24.871Z,99871.66
2023-04-26T07:30:29.185Z,99873.22
2023-04-26T07:33:31.875Z,99881.38
2023-04-26T07:36:40.143Z,99876.00
2023-04-26T07:39:42.355Z,99869.00
2023-04-26T07:42:46.047Z,99877.34
2023-04-26T07:45:52.034Z,99905.38
2023-04-26T07:48:55.328Z,99894.56
2023-04-26T07:52:09.936Z,99899.19
2023-04-26T07:59:35.660Z,99894.59
2023-04-26T08:03:40.237Z,99871.41
2023-04-26T08:07:16.568Z,99890.28
2023-04-26T08:10:19.111Z,99897.03
2023-04-26T08:13:27.040Z,99910.22
2023-04-26T08:16:31.629Z,99906.19
2023-04-26T08:20:09.157Z,99926.09
2023-04-26T08:23:21.624Z,99918.81
2023-04-26T08:26:24.488Z,99929.06
2023-04-26T08:29:28.597Z,99911.56
2023-04-26T08:32:30.879Z,99917.22
2023-04-26T08:35:33.724Z,99917.22
2023-04-26T08:38:37.720Z,99940.09
2023-04-26T08:41:49.876Z,99931.25
2023-04-26T08:44:54.319Z,99920.19
2023-04-26T08:48:06.525Z,99930.16
2023-04-26T08:51:13.150Z,99932.59
2023-04-26T08:54:43.284Z,99929.63
2023-04-26T08:57:57.356Z,99940.66
2023-04-26T09:01:03.830Z,99928.81
2023-04-26T09:13:45.558Z,99914.00
2023-04-26T09:22:16.999Z,99942.28
2023-04-26T09:25:31.193Z,99932.31
2023-04-26T09:29:38.253Z,99926.41
2023-04-26T09:32:57.372Z,99947.41
2023-04-26T09:48:23.655Z,99932.59
2023-04-26T09:51:29.923Z,99932.84
2023-04-26T09:54:48.434Z,99911.28
2023-04-26T09:57:56.197Z,99942.00
2023-04-26T10:01:04.350Z,99935.00
2023-04-26T10:04:27.963Z,99945.75
2023-04-26T10:07:53.910Z,99926.31
2023-04-26T10:10:58.072Z,99936.25
2023-04-26T10:14:00.801Z,99943.50
2023-04-26T10:17:09.000Z,99960.22
2023-04-26T10:20:24.331Z,99934.88
2023-04-26T10:27:01.455Z,99953.22
2023-04-26T10:30:11.658Z,99922.97
2023-04-26T10:33:19.599Z,99933.75
2023-04-26T10:36:22.949Z,99934.00
2023-04-26T10:39:28.230Z,99920.78
2023-04-26T10:42:32.312Z,99913.19
2023-04-26T10:45:35.012Z,99934.78
2023-04-26T10:48:38.929Z,99932.31
2023-04-26T10:52:18.482Z,99931.75
2023-04-26T10:55:40.017Z,99934.72
2023-04-26T10:58:46.665Z,99921.69
2023-04-26T11:01:53.220Z,99933.03
2023-04-26T11:05:03.500Z,99938.44
2023-04-26T11:08:28.733Z,99936.84
2023-04-26T11:11:32.861Z,99913.06
2023-04-26T11:14:36.091Z,99931.91
2023-04-26T11:17:42.086Z,99928.00
2023-04-26T11:20:45.110Z,99939.59
2023-04-26T11:23:54.790Z,99906.38
2023-04-26T11:26:58.687Z,99936.63
2023-04-26T11:30:04.484Z,99915.00
2023-04-26T11:33:18.293Z,99925.72
2023-04-26T11:36:21.324Z,99921.94
2023-04-26T11:39:27.338Z,99928.78
2023-04-26T11:42:29.637Z,99939.34
2023-04-26T11:45:35.076Z,99947.97
2023-04-26T11:48:38.199Z,99944.56
2023-04-26T11:51:43.267Z,99935.63
2023-04-26T11:54:45.831Z,99932.94
2023-04-26T11:57:48.120Z,99953.50
2023-04-26T12:01:04.555Z,99949.72
2023-04-26T12:04:12.843Z,99939.75
2023-04-26T12:07:18.792Z,99946.97
2023-04-26T12:10:26.777Z,99946.72
2023-04-26T12:13:29.838Z,99951.38
2023-04-26T12:16:35.928Z,99935.69
2023-04-26T12:19:39.721Z,99948.66
2023-04-26T12:22:41.913Z,99943.59
2023-04-26T12:25:55.986Z,99957.09
2023-04-26T12:28:58.214Z,99943.91
2023-04-26T12:32:01.287Z,99952.56
2023-04-26T12:35:04.505Z,99945.53
2023-04-26T12:38:06.829Z,99939.06
2023-04-26T12:41:09.161Z,99955.28
2023-04-26T12:44:12.654Z,99960.13
2023-04-26T12:47:15.115Z,99949.28
2023-04-26T12:50:32.682Z,99944.69
2023-04-26T12:53:38.732Z,99940.63
2023-04-26T12:56:44.615Z,99922.84
2023-04-26T12:59:47.164Z,99953.59
2023-04-26T13:02:49.624Z,99942.81
2023-04-26T13:05:52.360Z,99985.22
2023-04-26T13:08:54.564Z,99933.75
2023-04-26T13:11:56.856Z,99945.56
2023-04-26T13:14:59.484Z,99946.63
2023-04-26T13:18:01.918Z,99973.88
2023-04-26T13:21:04.460Z,99965.00
2023-04-26T13:24:06.817Z,99958.78
2023-04-26T13:27:09.767Z,99966.84
2023-04-26T13:30:13.239Z,99966.56
2023-04-26T13:33:15.484Z,99977.91
2023-04-26T13:36:17.751Z,99980.34
2023-04-26T13:39:20.079Z,99982.72
2023-04-26T13:42:22.490Z,99967.00
2023-04-26T13:45:24.629Z,99979.28
2023-04-26T13:48:27.460Z,99988.59
2023-04-26T13:51:30.735Z,99985.00
2023-04-26T13:54:32.920Z,99961.25
2023-04-26T13:57:35.067Z,99982.34
2023-04-26T14:00:37.675Z,99993.00
2023-04-26T14:03:41.259Z,100003.06
2023-04-26T14:06:44.176Z,100001.50
2023-04-26T14:09:46.371Z,99998.78
2023-04-26T14:12:48.693Z,100003.66
2023-04-26T14:15:51.056Z,99994.63
2023-04-26T14:18:53.294Z,99995.50
2023-04-26T14:21:55.452Z,100007.56
2023-04-26T14:24:57.821Z,99996.97
2023-04-26T14:28:01.473Z,99998.16
2023-04-26T14:31:03.803Z,99997.44
2023-04-26T14:34:06.323Z,99981.03
2023-04-26T14:37:08.822Z,100014.34
2023-04-26T14:40:11.854Z,100012.50
2023-04-26T14:43:14.057Z,100010.88
2023-04-26T14:46:16.565Z,100018.72
2023-04-26T14:49:19.346Z,100008.72
2023-04-26T14:52:21.724Z,100008.22
2023-04-26T14:55:24.135Z,100017.13
2023-04-26T14:58:26.660Z,100023.91
2023-04-26T15:01:29.143Z,100007.94
2023-04-26T15:04:32.941Z,100019.97
2023-04-26T15:07:35.323Z,100020.31
2023-04-26T15:10:37.874Z,100027.56
2023-04-26T15:13:40.066Z,100023.31
2023-04-26T15:16:42.435Z,100027.69
2023-04-26T15:19:44.719Z,100031.53
2023-04-26T15:22:50.138Z,100044.56
2023-04-26T15:25:52.656Z,100033.25
2023-04-26T15:28:54.778Z,100034.94
2023-04-26T15:31:57.085Z,100039.50
2023-04-26T15:34:59.410Z,100041.69
2023-04-26T15:38:01.849Z,100049.81
2023-04-26T15:41:04.450Z,100036.63
2023-04-26T15:44:06.765Z,100033.16
2023-04-26T15:47:09.126Z,100032.59
2023-04-26T15:50:11.771Z,100034.25
2023-04-26T15:53:14.447Z,100042.88
2023-04-26T15:56:17.763Z,100043.16
2023-04-26T15:59:20.379Z,100044.75
2023-04-26T16:02:22.812Z,100051.16
2023-04-26T16:05:25.126Z,100041.97
2023-04-26T16:08:39.423Z,100038.09
2023-04-26T16:11:42.366Z,100045.25
2023-04-26T16:14:44.768Z,100044.72
2023-04-26T16:17:47.031Z,100040.38
2023-04-26T16:20:49.807Z,100041.75
2023-04-26T16:23:52.028Z,100051.69
2023-04-26T16:26:54.198Z,100050.66
2023-04-26T16:29:57.043Z,100047.88
2023-04-26T16:32:59.571Z,100068.72
2023-04-26T16:36:01.821Z,100053.38
2023-04-26T16:39:04.034Z,100054.75
2023-04-26T16:42:06.679Z,100066.47
2023-04-26T16:45:15.512Z,100064.28
2023-04-26T16:48:18.583Z,100071.25
2023-04-26T16:51:21.000Z,100072.13
2023-04-26T16:54:23.201Z,100085.69
2023-04-26T16:57:25.615Z,100092.13
2023-04-26T17:00:28.486Z,100090.56
2023-04-26T17:03:31.348Z,100092.47
2023-04-26T17:06:34.035Z,100085.75
2023-04-26T17:09:38.565Z,100104.09
2023-04-26T17:12:40.985Z,100103.84
2023-04-26T17:15:43.257Z,100101.16
2023-04-26T17:18:46.090Z,100098.69
2023-04-26T17:21:48.239Z,100104.03
2023-04-26T17:24:50.505Z,100107.53
2023-04-26T17:27:53.013Z,100116.41
2023-04-26T17:30:55.291Z,100126.34
2023-04-26T17:33:57.497Z,100116.88
2023-04-26T17:36:59.635Z,100117.16
2023-04-26T17:40:01.881Z,100118.19
2023-04-26T17:43:04.095Z,100117.09
2023-04-26T17:46:06.611Z,100124.31
2023-04-26T17:49:08.858Z,100142.88
2023-04-26T17:52:11.064Z,100129.66
2023-04-26T17:55:13.356Z,100147.13
2023-04-26T17:58:15.930Z,100142.25
2023-04-26T18:01:18.205Z,100149.78
2023-04-26T18:04:20.895Z,100160.53
2023-04-26T18:07:23.862Z,100158.13
2023-04-26T18:10:26.107Z,100151.38
2023-04-26T18:13:28.451Z,100152.91
2023-04-26T18:16:30.731Z,100163.66
2023-04-26T18:19:33.179Z,100164.97
2023-04-26T18:22:35.436Z,100158.19
2023-04-26T18:25:37.631Z,100160.81
2023-04-26T18:28:39.868Z,100167.28
2023-04-26T18:31:42.122Z,100165.34
2023-04-26T18:34:44.424Z,100170.41
2023-04-26T18:37:46.769Z,100155.22
2023-04-26T18:40:49.852Z,100190.03
2023-04-26T18:43:53.494Z,100193.53
2023-04-26T18:46:56.109Z,100183.19
2023-04-26T18:49:58.466Z,100207.41
2023-04-26T18:53:00.655Z,100199.78
2023-04-26T18:56:02.816Z,100205.25
2023-04-26T18:59:05.096Z,100211.84
2023-04-26T19:02:07.349Z,100210.03
2023-04-26T19:05:10.772Z,100212.81
2023-04-26T19:08:13.325Z,100218.47
2023-04-26T19:11:15.806Z,100213.25
2023-04-26T19:14:26.761Z,100219.53
2023-04-26T19:17:33.374Z,100221.38
2023-04-26T19:20:37.847Z,100222.94
2023-04-26T19:23:40.071Z,100227.53
2023-04-26T19:26:42.426Z,100232.59
2023-04-26T19:29:44.617Z,100231.69
2023-04-26T19:32:46.943Z,100222.78
2023-04-26T19:35:51.852Z,100222.47
2023-04-26T19:38:54.459Z,100229.34
2023-04-26T19:41:57.140Z,100226.38
2023-04-26T19:44:59.398Z,100225.50
2023-04-26T19:48:01.728Z,100231.94
2023-04-26T19:51:04.102Z,100227.81
2023-04-26T19:54:08.534Z,100234.75
2023-04-26T19:57:11.782Z,100216.31
2023-04-26T20:00:15.530Z,100227.38
2023-04-26T20:03:17.837Z,100235.44
2023-04-26T20:06:20.211Z,100244.56
2023-04-26T20:09:22.463Z,100245.75
2023-04-26T20:12:24.639Z,100251.69
2023-04-26T20:15:27.526Z,100257.00
2023-04-26T20:18:29.709Z,100254.44
2023-04-26T20:21:32.737Z,100254.03
2023-04-26T20:24:36.184Z,100264.75
2023-04-26T20:27:38.722Z,100271.78
2023-04-26T20:30:41.531Z,100266.16
2023-04-26T20:33:43.891Z,100269.97
2023-04-26T20:36:46.519Z,100270.75
2023-04-26T20:39:49.083Z,100269.09
2023-04-26T20:42:51.639Z,100276.00
2023-04-26T20:45:53.836Z,100266.56
2023-04-26T20:48:56.062Z,100278.59
2023-04-26T20:51:58.396Z,100276.44
2023-04-26T20:55:00.624Z,100278.47
2023-04-26T20:58:02.937Z,100283.50
2023-04-26T21:01:07.355Z,100284.00
2023-04-26T21:04:09.984Z,100281.56
2023-04-26T21:07:12.388Z,100283.59
2023-04-26T21:10:14.838Z,100299.13
2023-04-26T21:13:17.015Z,100285.78
2023-04-26T21:16:22.218Z,100301.41
2023-04-26T21:19:24.414Z,100292.63
2023-04-26T21:22:26.599Z,100303.59
2023-04-26T21:25:28.791Z,100294.66
2023-04-26T21:28:31.038Z,100310.97
2023-04-26T21:31:33.222Z,100301.31
2023-04-26T21:34:36.550Z,100315.06
2023-04-26T21:37:44.406Z,100315.81
2023-04-26T21:40:46.597Z,100319.84
2023-04-26T21:43:50.230Z,100314.41
2023-04-26T21:46:52.521Z,100322.28
2023-04-26T21:49:54.708Z,100315.22
2023-04-26T21:52:56.862Z,100319.28
2023-04-26T21:55:59.156Z,100317.81
2023-04-26T21:59:02.594Z,100326.28
2023-04-26T22:02:04.805Z,100315.06
2023-04-26T22:05:07.403Z,100332.38
2023-04-26T22:08:09.764Z,100325.84
2023-04-26T22:11:12.022Z,100329.28
2023-04-26T22:14:14.189Z,100329.66
2023-04-26T22:17:16.591Z,100330.09
2023-04-26T22:20:19.124Z,100335.84
2023-04-26T22:23:21.430Z,100336.41
2023-04-26T22:26:24.000Z,100341.00
2023-04-26T22:29:26.154Z,100338.75
2023-04-26T22:32:28.371Z,100345.88
2023-04-26T22:35:30.717Z,100355.75
2023-04-26T22:38:32.860Z,100363.34
2023-04-26T22:41:35.054Z,100349.66
2023-04-26T22:44:37.486Z,100356.03
2023-04-26T22:47:40.840Z,100365.25
2023-04-26T22:50:43.244Z,100364.56
2023-04-26T22:53:45.946Z,100363.25
2023-04-26T22:56:48.243Z,100362.09
2023-04-26T22:59:50.539Z,100366.44
2023-04-26T23:02:52.918Z,100368.88
2023-04-26T23:05:55.574Z,100366.75
2023-04-26T23:08:57.802Z,100368.16
2023-04-26T23:11:59.984Z,100363.38
2023-04-26T23:15:03.831Z,100379.31
2023-04-26T23:18:06.294Z,100386.22
2023-04-26T23:21:08.992Z,100380.31
2023-04-26T23:24:11.284Z,100390.22
2023-04-26T23:27:13.438Z,100394.19
2023-04-26T23:30:15.927Z,100386.16
2023-04-26T23:33:18.158Z,100391.88
2023-04-26T23:36:20.411Z,100402.47
2023-04-26T23:39:22.792Z,100399.53
2023-04-26T23:42:25.099Z,100400.47
2023-04-26T23:45:27.235Z,100399.09
2023-04-26T23:48:29.491Z,100397.34
2023-04-26T23:51:32.458Z,100397.09
2023-04-26T23:54:34.810Z,100393.47
2023-04-26T23:57:37.192Z,100391.38
